sensor_id;sensor_type;location;lat;lon;timestamp;temperature;humidity
68177;DHT22;56478;50.982;7.032;2024-01-27T00:01:24;5.36;81.26
68177;DHT22;56478;50.982;7.032;2024-01-27T00:03:50;5.29;80.27
68177;DHT22;56478;50.982;7.032;2024-01-27T00:06:16;5.16;80.19
68177;DHT22;56478;50.982;7.032;2024-01-27T00:08:41;5.13;80.19
68177;DHT22;56478;50.982;7.032;2024-01-27T00:11:07;5.16;80.75
68177;DHT22;56478;50.982;7.032;2024-01-27T00:13:33;5.13;80.58
68177;DHT22;56478;50.982;7.032;2024-01-27T00:15:58;5.08;80.09
68177;DHT22;56478;50.982;7.032;2024-01-27T00:18:24;5.00;80.80
68177;DHT22;56478;50.982;7.032;2024-01-27T00:20:49;4.99;80.58
68177;DHT22;56478;50.982;7.032;2024-01-27T00:23:15;4.89;80.63
68177;DHT22;56478;50.982;7.032;2024-01-27T00:25:41;4.81;80.24
68177;DHT22;56478;50.982;7.032;2024-01-27T00:28:06;4.74;80.89
68177;DHT22;56478;50.982;7.032;2024-01-27T00:30:32;4.67;80.40
68177;DHT22;56478;50.982;7.032;2024-01-27T00:32:57;4.65;81.37
68177;DHT22;56478;50.982;7.032;2024-01-27T00:35:23;4.53;80.80
68177;DHT22;56478;50.982;7.032;2024-01-27T00:37:49;4.56;81.52
68177;DHT22;56478;50.982;7.032;2024-01-27T00:40:15;4.44;81.01
68177;DHT22;56478;50.982;7.032;2024-01-27T00:42:41;4.44;81.13
68177;DHT22;56478;50.982;7.032;2024-01-27T00:45:06;4.44;81.45
68177;DHT22;56478;50.982;7.032;2024-01-27T00:47:32;4.36;81.42
68177;DHT22;56478;50.982;7.032;2024-01-27T00:49:58;4.36;81.30
68177;DHT22;56478;50.982;7.032;2024-01-27T00:52:23;4.34;81.71
68177;DHT22;56478;50.982;7.032;2024-01-27T00:54:49;4.28;81.82
68177;DHT22;56478;50.982;7.032;2024-01-27T00:57:15;4.25;81.72
68177;DHT22;56478;50.982;7.032;2024-01-27T00:59:41;4.16;81.40
68177;DHT22;56478;50.982;7.032;2024-01-27T01:02:07;4.08;82.23
68177;DHT22;56478;50.982;7.032;2024-01-27T01:04:33;3.98;82.12
68177;DHT22;56478;50.982;7.032;2024-01-27T01:06:59;3.98;82.29
68177;DHT22;56478;50.982;7.032;2024-01-27T01:09:24;3.91;82.16
68177;DHT22;56478;50.982;7.032;2024-01-27T01:11:50;3.87;82.44
68177;DHT22;56478;50.982;7.032;2024-01-27T01:14:16;3.84;82.90
68177;DHT22;56478;50.982;7.032;2024-01-27T01:16:42;3.80;82.51
68177;DHT22;56478;50.982;7.032;2024-01-27T01:19:07;3.74;82.73
68177;DHT22;56478;50.982;7.032;2024-01-27T01:21:34;3.69;82.85
68177;DHT22;56478;50.982;7.032;2024-01-27T01:24:00;3.66;82.89
68177;DHT22;56478;50.982;7.032;2024-01-27T01:26:25;3.61;83.05
68177;DHT22;56478;50.982;7.032;2024-01-27T01:28:51;3.61;82.71
68177;DHT22;56478;50.982;7.032;2024-01-27T01:31:17;3.59;82.84
68177;DHT22;56478;50.982;7.032;2024-01-27T01:33:43;3.57;82.94
68177;DHT22;56478;50.982;7.032;2024-01-27T01:36:09;3.57;83.06
68177;DHT22;56478;50.982;7.032;2024-01-27T01:38:35;3.60;83.27
68177;DHT22;56478;50.982;7.032;2024-01-27T01:41:00;3.54;83.20
68177;DHT22;56478;50.982;7.032;2024-01-27T01:43:26;3.50;83.15
68177;DHT22;56478;50.982;7.032;2024-01-27T01:45:52;3.56;83.82
68177;DHT22;56478;50.982;7.032;2024-01-27T01:48:19;3.49;83.69
68177;DHT22;56478;50.982;7.032;2024-01-27T01:50:45;3.42;83.52
68177;DHT22;56478;50.982;7.032;2024-01-27T01:53:12;3.46;83.76
68177;DHT22;56478;50.982;7.032;2024-01-27T01:55:39;3.44;83.86
68177;DHT22;56478;50.982;7.032;2024-01-27T01:58:05;3.44;83.92
68177;DHT22;56478;50.982;7.032;2024-01-27T02:00:31;3.43;83.95
68177;DHT22;56478;50.982;7.032;2024-01-27T02:02:57;3.44;83.98
68177;DHT22;56478;50.982;7.032;2024-01-27T02:05:23;3.40;83.94
68177;DHT22;56478;50.982;7.032;2024-01-27T02:07:48;3.46;84.07
68177;DHT22;56478;50.982;7.032;2024-01-27T02:10:15;3.42;84.27
68177;DHT22;56478;50.982;7.032;2024-01-27T02:12:42;3.44;83.80
68177;DHT22;56478;50.982;7.032;2024-01-27T02:15:11;3.43;83.88
68177;DHT22;56478;50.982;7.032;2024-01-27T02:17:40;3.39;83.93
68177;DHT22;56478;50.982;7.032;2024-01-27T02:20:07;3.36;83.72
68177;DHT22;56478;50.982;7.032;2024-01-27T02:22:36;3.29;84.17
68177;DHT22;56478;50.982;7.032;2024-01-27T02:25:04;3.28;84.16
68177;DHT22;56478;50.982;7.032;2024-01-27T02:27:30;3.33;84.14
68177;DHT22;56478;50.982;7.032;2024-01-27T02:29:56;3.28;84.11
68177;DHT22;56478;50.982;7.032;2024-01-27T02:32:21;3.22;84.07
68177;DHT22;56478;50.982;7.032;2024-01-27T02:34:47;3.12;84.21
68177;DHT22;56478;50.982;7.032;2024-01-27T02:37:14;3.19;84.26
68177;DHT22;56478;50.982;7.032;2024-01-27T02:39:39;3.13;83.87
68177;DHT22;56478;50.982;7.032;2024-01-27T02:42:06;3.15;84.41
68177;DHT22;56478;50.982;7.032;2024-01-27T02:44:31;3.20;83.92
68177;DHT22;56478;50.982;7.032;2024-01-27T02:46:57;3.12;83.69
68177;DHT22;56478;50.982;7.032;2024-01-27T02:49:23;3.08;83.96
68177;DHT22;56478;50.982;7.032;2024-01-27T02:51:49;3.07;84.15
68177;DHT22;56478;50.982;7.032;2024-01-27T02:54:14;3.07;84.21
68177;DHT22;56478;50.982;7.032;2024-01-27T02:56:40;3.07;84.30
68177;DHT22;56478;50.982;7.032;2024-01-27T02:59:06;2.97;84.26
68177;DHT22;56478;50.982;7.032;2024-01-27T03:01:32;2.87;84.41
68177;DHT22;56478;50.982;7.032;2024-01-27T03:03:57;2.98;84.58
68177;DHT22;56478;50.982;7.032;2024-01-27T03:06:23;2.98;84.05
68177;DHT22;56478;50.982;7.032;2024-01-27T03:08:48;3.00;84.40
68177;DHT22;56478;50.982;7.032;2024-01-27T03:11:14;2.98;84.24
68177;DHT22;56478;50.982;7.032;2024-01-27T03:13:40;3.00;84.00
68177;DHT22;56478;50.982;7.032;2024-01-27T03:16:11;2.94;84.11
68177;DHT22;56478;50.982;7.032;2024-01-27T03:18:36;2.87;84.20
68177;DHT22;56478;50.982;7.032;2024-01-27T03:21:03;2.87;84.39
68177;DHT22;56478;50.982;7.032;2024-01-27T03:23:29;2.79;84.45
68177;DHT22;56478;50.982;7.032;2024-01-27T03:25:54;2.81;84.71
68177;DHT22;56478;50.982;7.032;2024-01-27T03:28:20;2.77;84.50
68177;DHT22;56478;50.982;7.032;2024-01-27T03:30:46;2.80;84.55
68177;DHT22;56478;50.982;7.032;2024-01-27T03:33:12;2.74;84.20
68177;DHT22;56478;50.982;7.032;2024-01-27T03:35:39;2.72;84.43
68177;DHT22;56478;50.982;7.032;2024-01-27T03:38:08;2.64;84.64
68177;DHT22;56478;50.982;7.032;2024-01-27T03:40:34;2.72;84.50
68177;DHT22;56478;50.982;7.032;2024-01-27T03:42:59;2.74;84.29
68177;DHT22;56478;50.982;7.032;2024-01-27T03:45:25;2.74;84.46
68177;DHT22;56478;50.982;7.032;2024-01-27T03:47:50;2.64;83.92
68177;DHT22;56478;50.982;7.032;2024-01-27T03:50:16;2.67;84.61
68177;DHT22;56478;50.982;7.032;2024-01-27T03:52:42;2.60;84.64
68177;DHT22;56478;50.982;7.032;2024-01-27T03:55:07;2.60;84.78
68177;DHT22;56478;50.982;7.032;2024-01-27T03:57:33;2.67;84.78
68177;DHT22;56478;50.982;7.032;2024-01-27T03:59:59;2.68;84.31
68177;DHT22;56478;50.982;7.032;2024-01-27T04:02:25;2.64;84.18
68177;DHT22;56478;50.982;7.032;2024-01-27T04:04:50;2.63;84.32
68177;DHT22;56478;50.982;7.032;2024-01-27T04:07:16;2.54;84.21
68177;DHT22;56478;50.982;7.032;2024-01-27T04:09:42;2.63;84.06
68177;DHT22;56478;50.982;7.032;2024-01-27T04:12:07;2.58;84.06
68177;DHT22;56478;50.982;7.032;2024-01-27T04:14:33;2.60;83.73
68177;DHT22;56478;50.982;7.032;2024-01-27T04:16:59;2.61;83.63
68177;DHT22;56478;50.982;7.032;2024-01-27T04:19:24;2.57;83.72
68177;DHT22;56478;50.982;7.032;2024-01-27T04:21:50;2.50;84.20
68177;DHT22;56478;50.982;7.032;2024-01-27T04:24:15;2.53;84.37
68177;DHT22;56478;50.982;7.032;2024-01-27T04:26:41;2.50;83.97
68177;DHT22;56478;50.982;7.032;2024-01-27T04:29:07;2.52;84.64
68177;DHT22;56478;50.982;7.032;2024-01-27T04:31:33;2.45;84.34
68177;DHT22;56478;50.982;7.032;2024-01-27T04:33:59;2.40;84.00
68177;DHT22;56478;50.982;7.032;2024-01-27T04:36:27;2.38;84.70
68177;DHT22;56478;50.982;7.032;2024-01-27T04:38:53;2.45;84.24
68177;DHT22;56478;50.982;7.032;2024-01-27T04:41:18;2.39;84.38
68177;DHT22;56478;50.982;7.032;2024-01-27T04:43:44;2.40;84.41
68177;DHT22;56478;50.982;7.032;2024-01-27T04:46:10;2.36;84.52
68177;DHT22;56478;50.982;7.032;2024-01-27T04:48:35;2.35;84.79
68177;DHT22;56478;50.982;7.032;2024-01-27T04:51:01;2.32;84.59
68177;DHT22;56478;50.982;7.032;2024-01-27T04:53:26;2.31;84.55
68177;DHT22;56478;50.982;7.032;2024-01-27T04:55:52;2.29;84.62
68177;DHT22;56478;50.982;7.032;2024-01-27T04:58:18;2.29;84.72
68177;DHT22;56478;50.982;7.032;2024-01-27T05:00:43;2.32;84.72
68177;DHT22;56478;50.982;7.032;2024-01-27T05:03:09;2.31;84.64
68177;DHT22;56478;50.982;7.032;2024-01-27T05:05:41;2.21;84.46
68177;DHT22;56478;50.982;7.032;2024-01-27T05:08:08;2.26;84.60
68177;DHT22;56478;50.982;7.032;2024-01-27T05:10:33;2.28;84.06
68177;DHT22;56478;50.982;7.032;2024-01-27T05:12:59;2.28;84.08
68177;DHT22;56478;50.982;7.032;2024-01-27T05:15:25;2.28;84.51
68177;DHT22;56478;50.982;7.032;2024-01-27T05:17:50;2.31;84.33
68177;DHT22;56478;50.982;7.032;2024-01-27T05:20:17;2.28;84.53
68177;DHT22;56478;50.982;7.032;2024-01-27T05:22:43;2.31;84.66
68177;DHT22;56478;50.982;7.032;2024-01-27T05:25:09;2.32;84.72
68177;DHT22;56478;50.982;7.032;2024-01-27T05:27:37;2.31;84.85
68177;DHT22;56478;50.982;7.032;2024-01-27T05:30:04;2.33;84.97
68177;DHT22;56478;50.982;7.032;2024-01-27T05:32:30;2.25;84.77
68177;DHT22;56478;50.982;7.032;2024-01-27T05:34:56;2.21;85.09
68177;DHT22;56478;50.982;7.032;2024-01-27T05:37:21;2.28;85.11
68177;DHT22;56478;50.982;7.032;2024-01-27T05:39:47;2.29;84.66
68177;DHT22;56478;50.982;7.032;2024-01-27T05:42:12;2.28;84.82
68177;DHT22;56478;50.982;7.032;2024-01-27T05:44:38;2.32;84.62
68177;DHT22;56478;50.982;7.032;2024-01-27T05:47:06;2.25;84.52
68177;DHT22;56478;50.982;7.032;2024-01-27T05:49:32;2.36;84.95
68177;DHT22;56478;50.982;7.032;2024-01-27T05:51:57;2.32;85.14
68177;DHT22;56478;50.982;7.032;2024-01-27T05:54:24;2.33;84.74
68177;DHT22;56478;50.982;7.032;2024-01-27T05:56:49;2.29;84.39
68177;DHT22;56478;50.982;7.032;2024-01-27T05:59:15;2.25;84.68
68177;DHT22;56478;50.982;7.032;2024-01-27T06:01:41;2.26;84.32
68177;DHT22;56478;50.982;7.032;2024-01-27T06:04:09;2.18;84.56
68177;DHT22;56478;50.982;7.032;2024-01-27T06:06:37;2.20;84.79
68177;DHT22;56478;50.982;7.032;2024-01-27T06:09:03;2.25;84.62
68177;DHT22;56478;50.982;7.032;2024-01-27T06:11:29;2.20;84.86
68177;DHT22;56478;50.982;7.032;2024-01-27T06:13:55;2.12;84.83
68177;DHT22;56478;50.982;7.032;2024-01-27T06:16:21;2.14;85.02
68177;DHT22;56478;50.982;7.032;2024-01-27T06:18:46;2.14;85.10
68177;DHT22;56478;50.982;7.032;2024-01-27T06:21:12;2.17;85.42
68177;DHT22;56478;50.982;7.032;2024-01-27T06:23:38;2.15;85.68
68177;DHT22;56478;50.982;7.032;2024-01-27T06:26:08;2.08;85.18
68177;DHT22;56478;50.982;7.032;2024-01-27T06:28:34;2.05;85.12
68177;DHT22;56478;50.982;7.032;2024-01-27T06:31:01;2.01;84.77
68177;DHT22;56478;50.982;7.032;2024-01-27T06:33:26;2.03;85.24
68177;DHT22;56478;50.982;7.032;2024-01-27T06:35:52;2.03;85.28
68177;DHT22;56478;50.982;7.032;2024-01-27T06:38:18;2.07;85.38
68177;DHT22;56478;50.982;7.032;2024-01-27T06:40:43;2.04;85.31
68177;DHT22;56478;50.982;7.032;2024-01-27T06:43:11;2.07;85.48
68177;DHT22;56478;50.982;7.032;2024-01-27T06:45:37;2.07;85.04
68177;DHT22;56478;50.982;7.032;2024-01-27T06:48:03;2.10;84.85
68177;DHT22;56478;50.982;7.032;2024-01-27T06:50:29;2.05;85.12
68177;DHT22;56478;50.982;7.032;2024-01-27T06:52:55;2.10;84.90
68177;DHT22;56478;50.982;7.032;2024-01-27T06:55:20;1.97;84.76
68177;DHT22;56478;50.982;7.032;2024-01-27T06:57:46;1.94;85.17
68177;DHT22;56478;50.982;7.032;2024-01-27T07:00:13;1.98;85.24
68177;DHT22;56478;50.982;7.032;2024-01-27T07:02:40;1.97;85.66
68177;DHT22;56478;50.982;7.032;2024-01-27T07:05:09;1.98;85.62
68177;DHT22;56478;50.982;7.032;2024-01-27T07:07:35;1.98;85.65
68177;DHT22;56478;50.982;7.032;2024-01-27T07:10:01;2.04;85.70
68177;DHT22;56478;50.982;7.032;2024-01-27T07:12:26;1.97;85.41
68177;DHT22;56478;50.982;7.032;2024-01-27T07:14:52;2.03;85.40
68177;DHT22;56478;50.982;7.032;2024-01-27T07:17:20;2.03;85.36
68177;DHT22;56478;50.982;7.032;2024-01-27T07:19:46;2.01;85.73
68177;DHT22;56478;50.982;7.032;2024-01-27T07:22:12;1.95;85.75
68177;DHT22;56478;50.982;7.032;2024-01-27T07:24:37;1.98;85.37
68177;DHT22;56478;50.982;7.032;2024-01-27T07:27:03;1.97;85.49
68177;DHT22;56478;50.982;7.032;2024-01-27T07:29:29;2.05;85.36
68177;DHT22;56478;50.982;7.032;2024-01-27T07:31:55;2.05;85.18
68177;DHT22;56478;50.982;7.032;2024-01-27T07:34:21;2.03;84.98
68177;DHT22;56478;50.982;7.032;2024-01-27T07:36:46;2.10;85.22
68177;DHT22;56478;50.982;7.032;2024-01-27T07:39:15;2.08;84.86
68177;DHT22;56478;50.982;7.032;2024-01-27T07:41:40;2.10;84.95
68177;DHT22;56478;50.982;7.032;2024-01-27T07:44:10;2.14;85.24
68177;DHT22;56478;50.982;7.032;2024-01-27T07:46:39;2.18;84.89
68177;DHT22;56478;50.982;7.032;2024-01-27T07:49:08;2.24;84.76
68177;DHT22;56478;50.982;7.032;2024-01-27T07:51:34;2.35;84.57
68177;DHT22;56478;50.982;7.032;2024-01-27T07:54:00;2.39;84.44
68177;DHT22;56478;50.982;7.032;2024-01-27T07:56:27;2.46;84.41
68177;DHT22;56478;50.982;7.032;2024-01-27T07:58:52;2.50;84.42
68177;DHT22;56478;50.982;7.032;2024-01-27T08:01:19;2.53;84.25
68177;DHT22;56478;50.982;7.032;2024-01-27T08:03:45;2.63;83.79
68177;DHT22;56478;50.982;7.032;2024-01-27T08:06:15;2.67;83.79
68177;DHT22;56478;50.982;7.032;2024-01-27T08:08:46;2.72;84.00
68177;DHT22;56478;50.982;7.032;2024-01-27T08:11:17;2.90;83.32
68177;DHT22;56478;50.982;7.032;2024-01-27T08:13:43;3.02;82.77
68177;DHT22;56478;50.982;7.032;2024-01-27T08:16:09;3.29;82.28
68177;DHT22;56478;50.982;7.032;2024-01-27T08:18:37;3.39;82.27
68177;DHT22;56478;50.982;7.032;2024-01-27T08:21:04;3.64;81.66
68177;DHT22;56478;50.982;7.032;2024-01-27T08:23:30;4.06;80.51
68177;DHT22;56478;50.982;7.032;2024-01-27T08:25:56;4.28;79.07
68177;DHT22;56478;50.982;7.032;2024-01-27T08:28:21;4.96;77.33
68177;DHT22;56478;50.982;7.032;2024-01-27T08:30:47;5.83;74.56
68177;DHT22;56478;50.982;7.032;2024-01-27T08:33:13;6.83;71.84
68177;DHT22;56478;50.982;7.032;2024-01-27T08:35:38;7.70;68.75
68177;DHT22;56478;50.982;7.032;2024-01-27T08:38:04;8.49;66.07
68177;DHT22;56478;50.982;7.032;2024-01-27T08:40:31;9.25;63.29
68177;DHT22;56478;50.982;7.032;2024-01-27T08:42:57;9.54;62.70
68177;DHT22;56478;50.982;7.032;2024-01-27T08:45:23;10.14;60.59
68177;DHT22;56478;50.982;7.032;2024-01-27T08:47:49;10.71;58.49
68177;DHT22;56478;50.982;7.032;2024-01-27T08:50:15;11.20;56.31
68177;DHT22;56478;50.982;7.032;2024-01-27T08:52:41;11.18;55.58
68177;DHT22;56478;50.982;7.032;2024-01-27T08:55:07;10.68;57.62
68177;DHT22;56478;50.982;7.032;2024-01-27T08:57:33;10.02;57.70
68177;DHT22;56478;50.982;7.032;2024-01-27T08:59:58;9.78;59.85
68177;DHT22;56478;50.982;7.032;2024-01-27T09:02:24;10.21;58.18
68177;DHT22;56478;50.982;7.032;2024-01-27T09:04:50;9.54;60.37
68177;DHT22;56478;50.982;7.032;2024-01-27T09:07:16;9.39;60.94
68177;DHT22;56478;50.982;7.032;2024-01-27T09:09:41;10.05;58.99
68177;DHT22;56478;50.982;7.032;2024-01-27T09:12:07;9.81;58.95
68177;DHT22;56478;50.982;7.032;2024-01-27T09:14:33;9.03;61.32
68177;DHT22;56478;50.982;7.032;2024-01-27T09:17:02;8.96;61.80
68177;DHT22;56478;50.982;7.032;2024-01-27T09:19:28;8.79;61.85
68177;DHT22;56478;50.982;7.032;2024-01-27T09:21:53;8.65;62.66
68177;DHT22;56478;50.982;7.032;2024-01-27T09:24:19;9.43;61.06
68177;DHT22;56478;50.982;7.032;2024-01-27T09:26:45;10.35;60.13
68177;DHT22;56478;50.982;7.032;2024-01-27T09:29:11;11.18;55.80
68177;DHT22;56478;50.982;7.032;2024-01-27T09:31:36;11.59;55.34
68177;DHT22;56478;50.982;7.032;2024-01-27T09:34:02;12.22;53.45
68177;DHT22;56478;50.982;7.032;2024-01-27T09:36:28;12.58;53.20
68177;DHT22;56478;50.982;7.032;2024-01-27T09:38:54;13.58;49.27
68177;DHT22;56478;50.982;7.032;2024-01-27T09:41:20;13.48;48.73
68177;DHT22;56478;50.982;7.032;2024-01-27T09:43:46;13.35;49.90
68177;DHT22;56478;50.982;7.032;2024-01-27T09:46:17;14.08;48.38
68177;DHT22;56478;50.982;7.032;2024-01-27T09:48:43;13.67;49.96
68177;DHT22;56478;50.982;7.032;2024-01-27T09:51:10;14.41;49.08
68177;DHT22;56478;50.982;7.032;2024-01-27T09:53:36;14.34;47.30
68177;DHT22;56478;50.982;7.032;2024-01-27T09:56:03;14.47;47.50
68177;DHT22;56478;50.982;7.032;2024-01-27T09:58:31;14.82;45.97
68177;DHT22;56478;50.982;7.032;2024-01-27T10:00:59;13.50;48.13
68177;DHT22;56478;50.982;7.032;2024-01-27T10:03:26;12.40;50.35
68177;DHT22;56478;50.982;7.032;2024-01-27T10:05:56;12.43;52.35
68177;DHT22;56478;50.982;7.032;2024-01-27T10:08:23;11.25;54.35
68177;DHT22;56478;50.982;7.032;2024-01-27T10:10:54;11.33;54.77
68177;DHT22;56478;50.982;7.032;2024-01-27T10:13:21;11.49;55.56
68177;DHT22;56478;50.982;7.032;2024-01-27T10:16:09;11.94;54.01
68177;DHT22;56478;50.982;7.032;2024-01-27T10:18:37;11.36;54.99
68177;DHT22;56478;50.982;7.032;2024-01-27T10:21:15;12.69;52.35
68177;DHT22;56478;50.982;7.032;2024-01-27T10:23:41;13.16;51.43
68177;DHT22;56478;50.982;7.032;2024-01-27T10:26:10;13.58;50.28
68177;DHT22;56478;50.982;7.032;2024-01-27T10:28:36;14.25;47.28
68177;DHT22;56478;50.982;7.032;2024-01-27T10:31:12;13.72;49.78
68177;DHT22;56478;50.982;7.032;2024-01-27T10:33:38;15.18;46.27
68177;DHT22;56478;50.982;7.032;2024-01-27T10:36:04;15.61;44.93
68177;DHT22;56478;50.982;7.032;2024-01-27T10:38:37;15.05;46.20
68177;DHT22;56478;50.982;7.032;2024-01-27T10:41:08;15.02;45.48
68177;DHT22;56478;50.982;7.032;2024-01-27T10:43:36;15.30;45.90
68177;DHT22;56478;50.982;7.032;2024-01-27T10:46:08;15.31;45.76
68177;DHT22;56478;50.982;7.032;2024-01-27T10:48:34;14.40;48.04
68177;DHT22;56478;50.982;7.032;2024-01-27T10:51:08;14.23;48.59
68177;DHT22;56478;50.982;7.032;2024-01-27T10:53:35;13.47;50.54
68177;DHT22;56478;50.982;7.032;2024-01-27T10:56:04;13.51;49.57
68177;DHT22;56478;50.982;7.032;2024-01-27T10:58:35;13.11;51.78
68177;DHT22;56478;50.982;7.032;2024-01-27T11:01:11;13.23;50.73
68177;DHT22;56478;50.982;7.032;2024-01-27T11:03:38;13.43;50.46
68177;DHT22;56478;50.982;7.032;2024-01-27T11:06:06;11.85;53.90
68177;DHT22;56478;50.982;7.032;2024-01-27T11:08:33;12.71;51.69
68177;DHT22;56478;50.982;7.032;2024-01-27T11:11:00;12.64;52.04
68177;DHT22;56478;50.982;7.032;2024-01-27T11:13:28;12.18;53.60
68177;DHT22;56478;50.982;7.032;2024-01-27T11:15:54;11.81;53.20
68177;DHT22;56478;50.982;7.032;2024-01-27T11:18:20;12.14;52.99
68177;DHT22;56478;50.982;7.032;2024-01-27T11:20:46;11.57;56.25
68177;DHT22;56478;50.982;7.032;2024-01-27T11:23:12;11.78;54.32
68177;DHT22;56478;50.982;7.032;2024-01-27T11:25:42;11.69;53.74
68177;DHT22;56478;50.982;7.032;2024-01-27T11:28:17;11.20;56.59
68177;DHT22;56478;50.982;7.032;2024-01-27T11:30:49;11.35;55.45
68177;DHT22;56478;50.982;7.032;2024-01-27T11:33:14;11.46;54.91
68177;DHT22;56478;50.982;7.032;2024-01-27T11:35:40;11.04;57.25
68177;DHT22;56478;50.982;7.032;2024-01-27T11:38:06;11.29;57.17
68177;DHT22;56478;50.982;7.032;2024-01-27T11:40:32;11.53;56.31
68177;DHT22;56478;50.982;7.032;2024-01-27T11:43:01;11.50;56.07
68177;DHT22;56478;50.982;7.032;2024-01-27T11:45:27;11.40;56.42
68177;DHT22;56478;50.982;7.032;2024-01-27T11:47:55;11.57;55.28
68177;DHT22;56478;50.982;7.032;2024-01-27T11:50:21;11.42;55.98
68177;DHT22;56478;50.982;7.032;2024-01-27T11:52:47;11.02;58.35
68177;DHT22;56478;50.982;7.032;2024-01-27T11:55:13;11.15;55.85
68177;DHT22;56478;50.982;7.032;2024-01-27T11:57:44;11.18;55.61
68177;DHT22;56478;50.982;7.032;2024-01-27T12:00:10;11.00;57.29
68177;DHT22;56478;50.982;7.032;2024-01-27T12:02:39;11.07;57.37
68177;DHT22;56478;50.982;7.032;2024-01-27T12:05:05;10.73;57.74
68177;DHT22;56478;50.982;7.032;2024-01-27T12:07:31;10.88;56.36
68177;DHT22;56478;50.982;7.032;2024-01-27T12:09:58;11.02;57.23
68177;DHT22;56478;50.982;7.032;2024-01-27T12:12:24;10.91;58.07
68177;DHT22;56478;50.982;7.032;2024-01-27T12:14:51;11.00;56.28
68177;DHT22;56478;50.982;7.032;2024-01-27T12:17:17;11.44;55.58
68177;DHT22;56478;50.982;7.032;2024-01-27T12:19:51;11.29;55.75
68177;DHT22;56478;50.982;7.032;2024-01-27T12:22:25;11.05;57.60
68177;DHT22;56478;50.982;7.032;2024-01-27T12:24:55;11.04;56.74
68177;DHT22;56478;50.982;7.032;2024-01-27T12:27:24;10.88;56.63
68177;DHT22;56478;50.982;7.032;2024-01-27T12:29:50;11.16;55.45
68177;DHT22;56478;50.982;7.032;2024-01-27T12:32:17;11.01;56.21
68177;DHT22;56478;50.982;7.032;2024-01-27T12:34:43;11.09;56.12
68177;DHT22;56478;50.982;7.032;2024-01-27T12:37:11;11.30;55.31
68177;DHT22;56478;50.982;7.032;2024-01-27T12:39:37;11.15;55.87
68177;DHT22;56478;50.982;7.032;2024-01-27T12:42:04;11.01;57.17
68177;DHT22;56478;50.982;7.032;2024-01-27T12:44:29;10.94;56.23
68177;DHT22;56478;50.982;7.032;2024-01-27T12:46:55;10.97;55.94
68177;DHT22;56478;50.982;7.032;2024-01-27T12:49:22;11.07;55.76
68177;DHT22;56478;50.982;7.032;2024-01-27T12:51:48;11.19;54.23
68177;DHT22;56478;50.982;7.032;2024-01-27T12:54:14;10.91;55.25
68177;DHT22;56478;50.982;7.032;2024-01-27T12:56:40;11.02;55.14
68177;DHT22;56478;50.982;7.032;2024-01-27T12:59:06;10.94;55.38
68177;DHT22;56478;50.982;7.032;2024-01-27T13:01:33;10.85;55.19
68177;DHT22;56478;50.982;7.032;2024-01-27T13:03:59;10.91;55.25
68177;DHT22;56478;50.982;7.032;2024-01-27T13:06:26;11.04;54.07
68177;DHT22;56478;50.982;7.032;2024-01-27T13:08:52;10.71;55.27
68177;DHT22;56478;50.982;7.032;2024-01-27T13:11:19;10.76;55.80
68177;DHT22;56478;50.982;7.032;2024-01-27T13:13:45;10.77;57.09
68177;DHT22;56478;50.982;7.032;2024-01-27T13:16:10;10.81;55.92
68177;DHT22;56478;50.982;7.032;2024-01-27T13:18:36;10.74;57.90
68177;DHT22;56478;50.982;7.032;2024-01-27T13:21:03;10.77;57.24
68177;DHT22;56478;50.982;7.032;2024-01-27T13:23:29;10.61;56.41
68177;DHT22;56478;50.982;7.032;2024-01-27T13:25:55;10.71;54.69
68177;DHT22;56478;50.982;7.032;2024-01-27T13:28:20;10.67;56.54
68177;DHT22;56478;50.982;7.032;2024-01-27T13:30:46;10.70;56.54
68177;DHT22;56478;50.982;7.032;2024-01-27T13:33:13;10.71;61.66
68177;DHT22;56478;50.982;7.032;2024-01-27T13:35:38;10.64;59.18
68177;DHT22;56478;50.982;7.032;2024-01-27T13:38:15;10.50;57.26
68177;DHT22;56478;50.982;7.032;2024-01-27T13:40:42;10.31;59.94
68177;DHT22;56478;50.982;7.032;2024-01-27T13:43:10;10.26;56.44
68177;DHT22;56478;50.982;7.032;2024-01-27T13:45:35;10.33;56.18
68177;DHT22;56478;50.982;7.032;2024-01-27T13:48:01;10.29;57.83
68177;DHT22;56478;50.982;7.032;2024-01-27T13:50:27;10.16;59.34
68177;DHT22;56478;50.982;7.032;2024-01-27T13:52:56;10.22;60.34
68177;DHT22;56478;50.982;7.032;2024-01-27T13:55:22;10.09;59.84
68177;DHT22;56478;50.982;7.032;2024-01-27T13:57:48;10.25;58.15
68177;DHT22;56478;50.982;7.032;2024-01-27T14:00:14;10.18;57.90
68177;DHT22;56478;50.982;7.032;2024-01-27T14:02:42;10.11;58.94
68177;DHT22;56478;50.982;7.032;2024-01-27T14:05:07;10.31;59.32
68177;DHT22;56478;50.982;7.032;2024-01-27T14:07:34;10.32;57.92
68177;DHT22;56478;50.982;7.032;2024-01-27T14:09:59;10.46;58.01
68177;DHT22;56478;50.982;7.032;2024-01-27T14:12:26;10.39;56.68
68177;DHT22;56478;50.982;7.032;2024-01-27T14:14:52;10.15;57.33
68177;DHT22;56478;50.982;7.032;2024-01-27T14:17:18;10.23;55.99
68177;DHT22;56478;50.982;7.032;2024-01-27T14:19:46;10.16;59.18
68177;DHT22;56478;50.982;7.032;2024-01-27T14:22:12;10.11;57.97
68177;DHT22;56478;50.982;7.032;2024-01-27T14:24:38;10.21;59.74
68177;DHT22;56478;50.982;7.032;2024-01-27T14:27:06;10.18;57.64
68177;DHT22;56478;50.982;7.032;2024-01-27T14:29:33;10.29;56.40
68177;DHT22;56478;50.982;7.032;2024-01-27T14:32:00;10.21;56.74
68177;DHT22;56478;50.982;7.032;2024-01-27T14:34:26;10.18;58.03
68177;DHT22;56478;50.982;7.032;2024-01-27T14:36:52;10.02;60.36
68177;DHT22;56478;50.982;7.032;2024-01-27T14:39:18;9.98;59.61
68177;DHT22;56478;50.982;7.032;2024-01-27T14:41:43;9.98;60.15
68177;DHT22;56478;50.982;7.032;2024-01-27T14:44:09;9.87;59.54
68177;DHT22;56478;50.982;7.032;2024-01-27T14:46:37;9.98;56.55
68177;DHT22;56478;50.982;7.032;2024-01-27T14:49:08;10.01;59.99
68177;DHT22;56478;50.982;7.032;2024-01-27T14:51:34;10.02;57.50
68177;DHT22;56478;50.982;7.032;2024-01-27T14:54:01;10.01;56.66
68177;DHT22;56478;50.982;7.032;2024-01-27T14:56:30;9.91;57.22
68177;DHT22;56478;50.982;7.032;2024-01-27T14:58:57;9.81;56.81
68177;DHT22;56478;50.982;7.032;2024-01-27T15:01:23;9.86;57.54
68177;DHT22;56478;50.982;7.032;2024-01-27T15:03:48;10.02;56.43
68177;DHT22;56478;50.982;7.032;2024-01-27T15:06:14;9.99;55.61
68177;DHT22;56478;50.982;7.032;2024-01-27T15:08:40;9.91;56.81
68177;DHT22;56478;50.982;7.032;2024-01-27T15:11:06;9.81;58.22
68177;DHT22;56478;50.982;7.032;2024-01-27T15:13:32;9.70;56.90
68177;DHT22;56478;50.982;7.032;2024-01-27T15:15:57;9.70;57.05
68177;DHT22;56478;50.982;7.032;2024-01-27T15:18:23;9.67;57.58
68177;DHT22;56478;50.982;7.032;2024-01-27T15:20:49;9.63;58.59
68177;DHT22;56478;50.982;7.032;2024-01-27T15:23:15;9.57;58.74
68177;DHT22;56478;50.982;7.032;2024-01-27T15:25:40;9.47;59.11
68177;DHT22;56478;50.982;7.032;2024-01-27T15:28:06;9.45;60.13
68177;DHT22;56478;50.982;7.032;2024-01-27T15:30:33;9.43;58.98
68177;DHT22;56478;50.982;7.032;2024-01-27T15:32:59;9.35;62.03
68177;DHT22;56478;50.982;7.032;2024-01-27T15:35:24;9.15;62.36